Nearby METAR Reports

 

KBUF - Buffalo/Cheektow, New York, USA
Distance from station: 0 0mi, 0km
Updated: 02/01/2023 10:54am
Few Clouds
Few Clouds
 Wind from W
Wind: W 20 mph , 31 km/h
Temperature: 19°F , -7°C
Wind Chill: 3°F , -16°C
Dew Point: 9°F , -13°C
Humidity: 63%
Barometer: 30.30 inHg , 1026.1 hPa
Clouds: Few Clouds
Visibility: 10 miles , 16 km
Cloud details: Few Clouds 2500 ft
2023/02/01 15:54 KBUF 011554Z 26017KT 10SM FEW025 M07/M13 A3030 RMK AO2 PK WND 27026/1544 SNB13E37 SLP275 VCSH SE-SW P0000 T10721133
KIAG - Niagara Falls, New York, USA
Distance from station: NW 16mi, 26km
Updated: 02/01/2023 10:53am
Partly cloudy
Partly cloudy
 Wind from W
Wind: W 21 mph , 33 km/h, Gust: 36 mph , 57 km/h
Temperature: 19°F , -7°C
Wind Chill: 3°F , -16°C
Dew Point: 9°F , -13°C
Humidity: 63%
Barometer: 30.31 inHg , 1026.4 hPa
Clouds: Partly cloudy
Visibility: 10 miles , 16 km
Cloud details: Partly cloudy 2700 ft
2023/02/01 15:53 KIAG 011553Z 26018G31KT 10SM SCT027 M07/M13 A3031 RMK AO2 PK WND 26032/1539 SLP285 T10671128
 
CWPC - Port Colborne(Au, Ontario, Canada
Distance from station: W 27mi, 43km
Updated: 01/24/2023 6:00pm
NOT Current

 Wind from W
Wind: W 17 mph , 28 km/h
Temperature: 34°F , 1°C
Wind Chill: 23°F , -5°C
Dew Point: 27°F , -3°C
Humidity: 75%
2023/01/24 23:00 CWPC 242300Z AUTO 26015KT 01/M03 RMK AO1 PK WND 25024/2212 T00101031 50017
CYSN - St. Catharines A, Ontario, Canada
Distance from station: NW 29mi, 46km
Updated: 02/01/2023 10:00am
Mostly cloudy
Mostly cloudy
 Wind from WSW
Wind: WSW 18 mph , 30 km/h
Temperature: 19°F , -7°C
Wind Chill: 4°F , -16°C
Dew Point: 7°F , -14°C
Humidity: 58%
Barometer: 30.33 inHg , 1027.1 hPa
Clouds: Mostly cloudy
Visibility: 15 miles , 24 km
Cloud details: Partly cloudy 3200 ft
Mostly cloudy 11000 ft
2023/02/01 15:00 CYSN 011500Z 24016KT 15SM SCT032 BKN110 M07/M14 A3033 RMK SC4AC3 SLP279
 
CWWZ - Port Weller (mar, Ontario, Canada
Distance from station: NW 33mi, 53km
Updated: 02/01/2023 10:00am

 Wind from WSW
Wind: WSW 12 mph , 19 km/h, Gust: 20 mph , 31 km/h
Temperature: 21°F , -6°C
Wind Chill: 9°F , -13°C
Dew Point: 12°F , -11°C
Humidity: 68%
2023/02/01 15:00 CWWZ 011500Z AUTO 24010G17KT M06/M11 RMK AO1 SOG 02 3014 PK WND 25021/1408 SLP276 T10631107
CXVN - Vineland (au8), Ontario, Canada
Distance from station: WNW 38mi, 61km
Updated: 02/01/2023 10:00am

 Wind from WSW
Wind: WSW 14 mph , 22 km/h, Gust: 20 mph , 31 km/h
Temperature: 18°F , -8°C
Wind Chill: 4°F , -16°C
Dew Point: 9°F , -13°C
Humidity: 68%
2023/02/01 15:00 CXVN 011500Z AUTO 24012G17KT M08/M13 RMK AO1 PK WND 22017/1455 SLP280 T10761133 53014
 
KDKK - Dunkirk, New York, USA
Distance from station: SW 41mi, 66km
Updated: 02/01/2023 11:00am
Light snow, Overcast
Light snow, Overcast
 Wind from WSW
Wind: WSW 16 mph , 26 km/h, Gust: 28 mph , 44 km/h
Temperature: 25°F , -4°C
Wind Chill: 12°F , -11°C
Dew Point: 10°F , -12°C
Humidity: 54%
Barometer: 30.33 inHg , 1027.1 hPa
Summary: Light Snow
Clouds: Overcast
Visibility: 9 miles , 14 km
Cloud details: Mostly cloudy 2900 ft
Overcast 3600 ft
2023/02/01 16:00 KDKK 011600Z AUTO 25014G24KT 9SM -SN BKN029 OVC036 M04/M12 A3033 RMK AO2 P0000 T10441117
KOLE - Olean, New York, USA
Distance from station: SSE 52mi, 83km
Updated: 01/02/2023 11:55pm
NOT Current
Fog, Overcast
Fog, Overcast
 Wind from calm
Wind: Calm
Temperature: 32°F , 0°C
Dew Point: 32°F , 0°C
Humidity: 100%
Barometer: 30.02 inHg , 1016.6 hPa
Summary: Fog
Clouds: Overcast
Visibility: 1/2 mile , 0.8 km
Cloud details: Overcast 500 ft
2023/01/03 04:55 KOLE 030455Z AUTO 00000KT 1/2SM FG VV005 00/00 A3002 RMK AO2
 
KROC - Rochester, New York, USA
Distance from station: ENE 55mi, 88km
Updated: 02/01/2023 10:54am
Light snow, Mostly cloudy
Light snow, Mostly cloudy
 Wind from WSW
Wind: WSW 20 mph , 31 km/h, Gust: 26 mph , 43 km/h
Temperature: 19°F , -7°C
Wind Chill: 3°F , -16°C
Dew Point: 10°F , -12°C
Humidity: 68%
Barometer: 30.29 inHg , 1025.7 hPa
Summary: Light Snow
Clouds: Mostly cloudy
Visibility: 9 miles , 14 km
Cloud details: Mostly cloudy 2800 ft
2023/02/01 15:54 KROC 011554Z 24017G23KT 9SM -SN BKN028 M07/M12 A3029 RMK AO2 SNB12 SLP272 P0000 T10671122
KDSV - Dansville, New York, USA
Distance from station: ESE 57mi, 92km
Updated: 02/01/2023 10:54am
Overcast
Overcast
 Wind from varies
Wind: varies 7 mph , 11 km/h
Temperature: 23°F , -5°C
Wind Chill: 15°F , -9°C
Dew Point: 9°F , -13°C
Humidity: 54%
Barometer: 30.30 inHg , 1026.1 hPa
Clouds: Overcast
Visibility: 10 miles , 16 km
Cloud details: Overcast 3500 ft
2023/02/01 15:54 KDSV 011554Z AUTO VRB06KT 10SM OVC035 M05/M13 A3030 RMK AO2 SLP279 T10501128
 
CWWB - Burlington Piers, Ontario, Canada
Distance from station: WNW 59mi, 94km
Updated: 02/01/2023 10:00am

 Wind from SSW
Wind: SSW 8 mph , 13 km/h
Temperature: 18°F , -8°C
Wind Chill: 8°F , -13°C
Dew Point: 9°F , -13°C
Humidity: 68%
2023/02/01 15:00 CWWB 011500Z AUTO 21007KT M08/M13 RMK AO1 SLP278 T10821130 53013
CYTZ - Toronto Il Vor, Ontario, Canada
Distance from station: NW 59mi, 95km
Updated: 02/01/2023 10:00am
Overcast
Overcast
 Wind from WSW
Wind: WSW 17 mph , 28 km/h
Temperature: 19°F , -7°C
Wind Chill: 4°F , -16°C
Dew Point: 10°F , -12°C
Humidity: 68%
Barometer: 30.30 inHg , 1026.1 hPa
Clouds: Overcast
Visibility: 9 miles , 14 km
Cloud details: Overcast 3700 ft
2023/02/01 15:00 CYTZ 011500Z AUTO 24015KT 9SM OVC037 M07/M12 A3030 RMK SLP268
 
CXTO - Toronto City, Ontario, Canada
Distance from station: NW 61mi, 98km
Updated: 02/01/2023 10:00am

 
Temperature: 18°F , -8°C
Dew Point: 7°F , -14°C
Humidity: 62%
2023/02/01 15:00 CXTO 011500Z AUTO M08/M14 RMK AO1 SOG 08 3011 SLP262 T10791138
KJHW - Jamestown, New York, USA
Distance from station: SSW 62mi, 99km
Updated: 02/01/2023 10:56am
Light snow, Overcast
Light snow, Overcast
 Wind from W
Wind: W 12 mph , 19 km/h
Temperature: 18°F , -8°C
Wind Chill: 5°F , -15°C
Dew Point: 12°F , -11°C
Humidity: 79%
Barometer: 30.26 inHg , 1024.7 hPa
Summary: Light Snow
Clouds: Overcast
Visibility: 4 miles , 6 km
Cloud details: Few Clouds 1200 ft
Mostly cloudy 1700 ft
Overcast 2500 ft
2023/02/01 15:56 KJHW 011556Z AUTO 27010KT 4SM -SN FEW012 BKN017 OVC025 M08/M11 A3026 RMK AO2 SLP285 P0000 T10831111 FZRANO
 
CYHM - Hamilton Airport, Ontario, Canada
Distance from station: WNW 63mi, 101km
Updated: 02/01/2023 10:01am
Light snow, Mostly cloudy
Light snow, Mostly cloudy
 Wind from WSW
Wind: WSW 15 mph , 24 km/h, Gust: 21 mph , 33 km/h
Temperature: 14°F , -10°C
Wind Chill: -1°F , -18°C
Dew Point: 7°F , -14°C
Humidity: 73%
Barometer: 30.28 inHg , 1025.4 hPa
Summary: Light Snow
Clouds: Mostly cloudy
Visibility: 15 miles , 24 km
Cloud details: Mostly cloudy 2600 ft
2023/02/01 15:01 CYHM 011501Z 25013G18KT 15SM -SN BKN026 M10/M14 A3028 RMK SC7 PCPN VRY LGT SLP274
CXHM - Hamilton Rbg Cs, Ontario, Canada
Distance from station: WNW 64mi, 102km
Updated: 02/01/2023 10:00am

 Wind from WSW
Wind: WSW 7 mph , 11 km/h
Temperature: 18°F , -8°C
Wind Chill: 9°F , -13°C
Dew Point: 7°F , -14°C
Humidity: 62%
2023/02/01 15:00 CXHM 011500Z AUTO 24006KT M08/M14 RMK AO1 SLP275 T10821137 53011
 
CYYZ - Toronto/Pearson, Ontario, Canada
Distance from station: NW 67mi, 108km
Updated: 02/01/2023 10:13am
Mostly cloudy
Mostly cloudy
 Wind from SSW
Wind: SSW 15 mph , 24 km/h, Gust: 21 mph , 33 km/h
Temperature: 16°F , -9°C
Wind Chill: 1°F , -17°C
Dew Point: 7°F , -14°C
Humidity: 67%
Barometer: 30.26 inHg , 1024.7 hPa
Clouds: Mostly cloudy
Visibility: 15 miles , 24 km
Cloud details: Mostly cloudy 3700 ft
2023/02/01 15:13 CYYZ 011513Z 21013G18KT 15SM BKN037 M09/M14 A3026 RMK SC5 SLP263
CYOO - Oshawa, Ontario, Canada
Distance from station: N 68mi, 110km
Updated: 02/01/2023 10:00am
Partly cloudy
Partly cloudy
 Wind from WSW
Wind: WSW 12 mph , 19 km/h, Gust: 17 mph , 28 km/h
Temperature: 18°F , -8°C
Wind Chill: 5°F , -15°C
Dew Point: 9°F , -13°C
Humidity: 68%
Barometer: 30.26 inHg , 1024.7 hPa
Clouds: Partly cloudy
Visibility: 9 miles , 14 km
Cloud details: Partly cloudy 4100 ft
2023/02/01 15:00 CYOO 011500Z AUTO 24010G15KT 9SM SCT041 M08/M13 A3026 RMK SLP258
 
KELZ - Wellsville, New York, USA
Distance from station: SE 69mi, 111km
Updated: 02/01/2023 10:56am
Overcast
Overcast
 Wind from W
Wind: W 9 mph , 15 km/h, Gust: 16 mph , 26 km/h
Temperature: 18°F , -8°C
Wind Chill: 7°F , -14°C
Dew Point: 7°F , -14°C
Humidity: 62%
Barometer: 30.21 inHg , 1023 hPa
Clouds: Overcast
Visibility: 10 miles , 16 km
Cloud details: Overcast 2400 ft
2023/02/01 15:56 KELZ 011556Z AUTO 27008G14KT 10SM OVC024 M08/M14 A3021 RMK AO2 SLP270 T10781139 $
CWNC - Cobourg (mars), Ontario, Canada
Distance from station: NNE 76mi, 122km
Updated: 02/01/2023 10:00am

 Wind from WNW
Wind: WNW 9 mph , 15 km/h, Gust: 17 mph , 28 km/h
Temperature: 18°F , -8°C
Wind Chill: 7°F , -14°C
Dew Point: 7°F , -14°C
Humidity: 62%
2023/02/01 15:00 CWNC 011500Z AUTO 29008G15KT M08/M14 RMK AO1 SOG 10 3007 SLP253 T10761143